Time;durP1;ratioP1;P1;durP2;ratioP2;P2;SDS_P1;SDS_P2;PMS_P1;PMS_P2;Temp;Humidity;BMP_temperature;BMP_pressure;BME280_temperature;BME280_humidity;BME280_pressure;Samples;Min_cycle;Max_cycle;Signal;HPM_P1;HPM_P2
2022/12/18 00:00:27;;;;;;;115.40;36.23;;;-2.80;99.90;;;;;;5070099;28;20512;-66
2022/12/18 00:02:53;;;;;;;111.67;36.20;;;-2.80;99.90;;;;;;5069543;28;20040;-66
2022/12/18 00:05:18;;;;;;;113.30;36.77;;;-2.80;99.90;;;;;;5064318;28;20044;-66
2022/12/18 00:07:44;;;;;;;126.50;40.33;;;-2.80;99.90;;;;;;5065204;28;20036;-66
2022/12/18 00:10:09;;;;;;;119.67;36.10;;;-2.80;99.90;;;;;;5069133;28;20036;-66
2022/12/18 00:12:35;;;;;;;124.63;38.63;;;-2.80;99.90;;;;;;5071491;28;20049;-66
2022/12/18 00:15:00;;;;;;;114.67;35.40;;;-2.70;99.90;;;;;;5071611;28;20085;-66
2022/12/18 00:17:26;;;;;;;108.73;36.50;;;-2.80;99.90;;;;;;5069746;28;20032;-66
2022/12/18 00:19:52;;;;;;;111.27;37.33;;;-2.80;99.90;;;;;;5070510;28;20033;-66
2022/12/18 00:22:17;;;;;;;106.50;35.97;;;-2.80;99.90;;;;;;5067378;28;20041;-67
2022/12/18 00:24:43;;;;;;;114.53;37.70;;;-2.80;99.90;;;;;;5071002;28;20036;-66
2022/12/18 00:27:08;;;;;;;106.67;36.80;;;-2.80;99.90;;;;;;5071454;28;20146;-66
2022/12/18 00:29:34;;;;;;;111.23;39.10;;;-2.80;99.90;;;;;;5069614;28;20456;-66
2022/12/18 00:31:59;;;;;;;94.10;34.97;;;-2.90;99.90;;;;;;5069434;28;20064;-66
2022/12/18 00:34:25;;;;;;;107.90;35.70;;;-2.90;99.90;;;;;;5070611;28;20113;-66
2022/12/18 00:36:50;;;;;;;108.87;35.60;;;-3.00;99.90;;;;;;5069366;28;20029;-66
2022/12/18 00:39:16;;;;;;;109.13;35.37;;;-3.00;99.90;;;;;;5070797;28;20394;-66
2022/12/18 00:44:26;;;;;;;108.70;37.73;;;-3.00;99.90;;;;;;5062177;28;20051;-66
2022/12/18 00:46:51;;;;;;;107.00;36.77;;;-3.00;99.90;;;;;;5068748;28;20036;-66
2022/12/18 00:49:18;;;;;;;113.60;36.13;;;-3.00;99.90;;;;;;5063815;28;20127;-67
2022/12/18 00:51:44;;;;;;;110.50;37.03;;;-3.10;99.90;;;;;;5068660;28;20037;-67
2022/12/18 00:54:10;;;;;;;106.90;36.57;;;-3.10;99.90;;;;;;5067538;28;20041;-67
2022/12/18 00:56:37;;;;;;;107.70;36.03;;;-3.10;99.90;;;;;;5069047;28;20039;-66
2022/12/18 00:59:03;;;;;;;105.20;37.10;;;-3.10;99.90;;;;;;5064958;28;20121;-66
2022/12/18 01:01:28;;;;;;;103.87;35.50;;;-3.20;99.90;;;;;;5069789;28;20086;-67
2022/12/18 01:03:57;;;;;;;109.03;38.23;;;-3.20;99.90;;;;;;5068704;28;20043;-66
2022/12/18 01:06:23;;;;;;;119.73;37.10;;;-3.20;99.90;;;;;;5067987;28;20036;-67
2022/12/18 01:08:48;;;;;;;105.97;36.73;;;-3.30;99.90;;;;;;5069709;28;20055;-66
2022/12/18 01:11:17;;;;;;;110.87;36.93;;;-3.30;99.90;;;;;;5066053;28;20040;-67
2022/12/18 01:13:43;;;;;;;113.67;38.47;;;-3.30;99.90;;;;;;5056409;22;20034;-72
2022/12/18 01:16:12;;;;;;;105.43;36.60;;;-3.40;99.90;;;;;;5039048;28;20037;-72
2022/12/18 01:18:38;;;;;;;110.47;35.93;;;-3.40;99.90;;;;;;5036645;28;20034;-72
2022/12/18 01:21:12;;;;;;;107.17;36.20;;;-3.30;99.90;;;;;;5029318;28;20044;-72
2022/12/18 01:23:37;;;;;;;107.60;36.40;;;-3.40;99.90;;;;;;5029979;28;20045;-72
2022/12/18 01:26:11;;;;;;;100.60;36.23;;;-3.40;99.90;;;;;;5030772;28;20415;-72
2022/12/18 01:28:37;;;;;;;116.63;37.77;;;-3.40;99.90;;;;;;5030755;28;20033;-72
2022/12/18 01:31:10;;;;;;;109.43;35.40;;;-3.40;99.90;;;;;;5026143;28;20550;-72
2022/12/18 01:33:36;;;;;;;106.70;34.07;;;-3.50;99.90;;;;;;5039537;28;20498;-72
2022/12/18 01:36:02;;;;;;;110.43;35.97;;;-3.50;99.90;;;;;;5023508;28;20040;-72
2022/12/18 01:38:28;;;;;;;102.93;35.50;;;-3.60;99.90;;;;;;5021864;28;20120;-72
2022/12/18 01:40:58;;;;;;;89.53;32.43;;;-3.60;99.90;;;;;;5051191;28;20151;-72
2022/12/18 01:43:42;;;;;;;93.30;33.57;;;-3.70;99.90;;;;;;5028343;28;20049;-72
2022/12/18 01:46:07;;;;;;;94.77;34.13;;;-3.70;99.90;;;;;;5024088;28;20044;-72
2022/12/18 01:48:33;;;;;;;94.43;34.10;;;-3.80;99.90;;;;;;5022280;28;20113;-72
2022/12/18 01:51:00;;;;;;;96.17;34.27;;;-3.90;99.90;;;;;;5028810;28;20037;-72
2022/12/18 01:53:26;;;;;;;95.70;33.43;;;-3.90;99.90;;;;;;5044590;28;20398;-72
2022/12/18 01:55:54;;;;;;;95.17;32.70;;;-4.00;99.90;;;;;;5036526;28;20025;-72
2022/12/18 01:58:27;;;;;;;85.03;31.87;;;-4.00;99.90;;;;;;5029023;28;20140;-72
2022/12/18 02:00:55;;;;;;;92.80;33.30;;;-4.00;99.90;;;;;;5030524;28;20084;-72
2022/12/18 02:03:20;;;;;;;92.90;32.77;;;-4.00;99.90;;;;;;5037669;28;20433;-72
2022/12/18 02:05:59;;;;;;;95.77;35.23;;;-4.10;99.90;;;;;;5028521;28;20042;-72
2022/12/18 02:08:50;;;;;;;96.87;32.90;;;-4.10;99.90;;;;;;5044371;28;20041;-72
2022/12/18 02:11:34;;;;;;;;;;;-4.10;99.90;;;;;;5016091;28;20380;-72
2022/12/18 02:14:38;;;;;;;93.37;32.33;;;-4.10;99.90;;;;;;5022394;28;19925;-72
2022/12/18 02:17:11;;;;;;;95.27;32.97;;;-4.20;99.90;;;;;;5022397;28;20438;-72
2022/12/18 02:19:46;;;;;;;89.50;32.33;;;-4.20;99.90;;;;;;5026895;28;20438;-72
2022/12/18 02:22:24;;;;;;;93.30;33.37;;;-4.30;99.90;;;;;;5033025;28;20427;-72
2022/12/18 02:25:10;;;;;;;89.50;32.43;;;-4.30;99.90;;;;;;5033065;28;20034;-72
2022/12/18 02:27:37;;;;;;;101.27;33.60;;;-4.30;99.90;;;;;;5027802;28;20033;-72
2022/12/18 02:30:05;;;;;;;102.17;35.57;;;-4.30;99.90;;;;;;5026040;28;20049;-72
2022/12/18 02:32:37;;;;;;;95.90;35.43;;;-4.30;99.90;;;;;;5039851;28;20037;-72
2022/12/18 02:35:05;;;;;;;95.67;34.00;;;-4.30;99.90;;;;;;5029255;28;20043;-72
2022/12/18 02:37:33;;;;;;;92.73;33.87;;;-4.30;99.90;;;;;;5046108;28;20114;-72
2022/12/18 02:40:00;;;;;;;89.27;32.73;;;-4.30;99.90;;;;;;5031410;28;20508;-72
2022/12/18 02:42:27;;;;;;;102.33;34.83;;;-4.30;99.90;;;;;;5026958;28;20029;-72
2022/12/18 02:44:54;;;;;;;93.90;32.30;;;-4.30;99.90;;;;;;5028588;28;20060;-72
2022/12/18 02:47:29;;;;;;;97.57;34.73;;;-4.30;99.90;;;;;;5039041;28;20033;-72
2022/12/18 02:49:57;;;;;;;90.13;33.67;;;-4.30;99.90;;;;;;5040410;28;20038;-73
2022/12/18 02:53:01;;;;;;;93.30;33.50;;;-4.30;99.90;;;;;;5027708;28;20068;-72
2022/12/18 02:55:32;;;;;;;80.63;31.23;;;-4.40;99.90;;;;;;5037196;28;20044;-72
2022/12/18 02:58:10;;;;;;;83.63;31.07;;;-4.40;99.90;;;;;;5033977;28;20046;-72
2022/12/18 03:00:50;;;;;;;80.80;32.07;;;-4.50;99.90;;;;;;5030837;28;20124;-72
2022/12/18 03:03:41;;;;;;;81.00;29.33;;;-4.50;99.90;;;;;;5026956;28;20561;-72
2022/12/18 03:06:31;;;;;;;84.60;29.80;;;-4.60;99.90;;;;;;5023430;28;20038;-73
2022/12/18 03:09:02;;;;;;;77.10;29.73;;;-4.70;99.90;;;;;;5025554;28;20056;-73
2022/12/18 03:14:17;;;;;;;82.50;31.80;;;-4.80;99.90;;;;;;5045466;28;20311;-72
2022/12/18 03:16:44;;;;;;;77.10;28.17;;;-4.80;99.90;;;;;;5033257;28;20108;-72
2022/12/18 03:19:16;;;;;;;76.40;28.73;;;-4.80;99.90;;;;;;5036258;28;20041;-73
2022/12/18 03:21:49;;;;;;;71.10;27.53;;;-4.90;99.90;;;;;;5037418;28;20151;-72
2022/12/18 03:24:17;;;;;;;76.10;28.73;;;-4.90;99.90;;;;;;5021580;28;20043;-72
2022/12/18 03:26:48;;;;;;;74.70;29.10;;;-4.90;99.90;;;;;;5030371;28;20091;-73
2022/12/18 03:29:21;;;;;;;73.67;26.73;;;-5.00;99.90;;;;;;5035120;28;20403;-73
2022/12/18 03:31:53;;;;;;;71.90;26.80;;;-5.00;99.90;;;;;;5030655;28;20518;-72
2022/12/18 03:34:29;;;;;;;65.40;25.83;;;-5.00;99.90;;;;;;5035533;28;20582;-72
2022/12/18 03:36:54;;;;;;;74.17;28.33;;;-5.10;99.90;;;;;;5030872;28;20034;-73
2022/12/18 03:39:20;;;;;;;74.13;28.27;;;-5.10;99.90;;;;;;5032345;28;20113;-73
2022/12/18 03:42:03;;;;;;;67.33;26.20;;;-5.10;99.90;;;;;;5030697;28;20426;-73
2022/12/18 03:45:07;;;;;;;62.23;25.83;;;-5.10;99.90;;;;;;5034536;28;20045;-73
2022/12/18 03:48:04;;;;;;;62.50;26.00;;;-5.00;99.90;;;;;;5028855;28;20046;-73
2022/12/18 03:50:40;;;;;;;59.17;25.93;;;-5.10;99.90;;;;;;5023497;28;20064;-73
2022/12/18 03:53:25;;;;;;;60.73;26.57;;;-5.10;99.90;;;;;;5034105;28;20114;-73
2022/12/18 03:55:52;;;;;;;58.27;24.87;;;-5.20;99.90;;;;;;5023006;28;20045;-73
2022/12/18 03:58:23;;;;;;;58.03;24.83;;;-5.20;99.90;;;;;;5027410;28;20444;-73
2022/12/18 04:00:51;;;;;;;60.95;25.35;;;-5.20;99.90;;;;;;5040347;28;20037;-73
2022/12/18 04:03:19;;;;;;;60.83;25.40;;;-5.20;99.90;;;;;;5029709;28;20041;-73
2022/12/18 04:05:47;;;;;;;59.87;25.50;;;-5.20;99.90;;;;;;5047338;28;20364;-73
2022/12/18 04:08:13;;;;;;;61.10;26.23;;;-5.20;99.90;;;;;;5034610;28;20107;-73
2022/12/18 04:10:39;;;;;;;58.93;25.90;;;-5.20;99.90;;;;;;5022655;28;20047;-73
2022/12/18 04:13:05;;;;;;;57.43;24.20;;;-5.20;99.90;;;;;;5030828;28;20402;-73
2022/12/18 04:15:34;;;;;;;59.80;24.73;;;-5.20;99.90;;;;;;5040197;28;20084;-73
2022/12/18 04:17:59;;;;;;;55.33;23.03;;;-5.20;99.90;;;;;;5017573;28;20513;-73
2022/12/18 04:20:25;;;;;;;64.27;26.57;;;-5.20;99.90;;;;;;5025749;28;20115;-73
2022/12/18 04:22:50;;;;;;;55.53;23.23;;;-5.20;99.90;;;;;;5040774;28;20099;-73
2022/12/18 04:25:16;;;;;;;54.57;24.30;;;-5.30;99.90;;;;;;5026881;28;20047;-73
2022/12/18 04:27:42;;;;;;;54.20;23.57;;;-5.30;99.90;;;;;;5014315;28;20030;-73
2022/12/18 04:30:08;;;;;;;55.93;24.13;;;-5.30;99.90;;;;;;5034939;28;20487;-73
2022/12/18 04:32:34;;;;;;;58.17;24.23;;;-5.30;99.90;;;;;;5031791;28;20041;-73
2022/12/18 04:34:59;;;;;;;61.80;22.97;;;-5.40;99.90;;;;;;5030061;28;20497;-73
2022/12/18 04:37:25;;;;;;;52.87;23.53;;;-5.40;99.90;;;;;;5030981;28;20030;-72
2022/12/18 04:39:51;;;;;;;60.43;24.60;;;-5.40;99.90;;;;;;5029152;28;20407;-73
2022/12/18 04:42:16;;;;;;;53.27;24.53;;;-5.50;99.90;;;;;;5031456;28;20033;-73
2022/12/18 04:44:42;;;;;;;52.73;22.13;;;-5.60;99.90;;;;;;5025316;28;20368;-73
2022/12/18 04:47:07;;;;;;;53.60;22.80;;;-5.60;99.90;;;;;;5015395;28;20064;-73
2022/12/18 04:49:33;;;;;;;59.30;24.20;;;-5.70;99.90;;;;;;5028763;28;20033;-73
2022/12/18 04:51:58;;;;;;;54.00;22.20;;;-5.70;99.90;;;;;;5029645;28;20475;-73
2022/12/18 04:54:25;;;;;;;49.43;22.67;;;-5.70;99.90;;;;;;5036061;28;20036;-73
2022/12/18 04:56:50;;;;;;;51.40;22.13;;;-5.70;99.90;;;;;;5048647;28;20041;-73
2022/12/18 04:59:16;;;;;;;50.97;21.97;;;-5.70;99.90;;;;;;5024755;28;20061;-73
2022/12/18 05:01:42;;;;;;;55.33;23.93;;;-5.60;99.90;;;;;;5019737;28;20085;-73
2022/12/18 05:04:07;;;;;;;46.83;21.40;;;-5.60;99.90;;;;;;5022165;28;20168;-73
2022/12/18 05:06:33;;;;;;;52.83;21.90;;;-5.50;99.90;;;;;;5037473;28;20402;-73
2022/12/18 05:08:58;;;;;;;49.97;21.47;;;-5.50;99.90;;;;;;5029754;28;20032;-73
2022/12/18 05:11:24;;;;;;;52.10;21.27;;;-5.50;99.90;;;;;;5027510;28;20442;-73
2022/12/18 05:13:50;;;;;;;45.40;20.97;;;-5.50;99.90;;;;;;5025627;28;20447;-73
2022/12/18 05:16:15;;;;;;;41.67;19.40;;;-5.50;99.90;;;;;;5027751;28;20037;-76
2022/12/18 05:18:41;;;;;;;46.23;21.80;;;-5.50;99.90;;;;;;5042664;28;20041;-76
2022/12/18 05:21:07;;;;;;;43.83;20.20;;;-5.50;99.90;;;;;;5013809;28;20038;-77
2022/12/18 05:23:33;;;;;;;47.30;21.73;;;-5.50;99.90;;;;;;5020760;28;20041;-77
2022/12/18 05:26:04;;;;;;;48.43;20.77;;;-5.50;99.90;;;;;;5031670;28;20115;-77
2022/12/18 05:28:31;;;;;;;47.60;19.63;;;-5.50;99.90;;;;;;5018629;28;20077;-76
2022/12/18 05:30:59;;;;;;;47.63;19.60;;;-5.50;99.90;;;;;;5028850;28;20048;-77
2022/12/18 05:33:28;;;;;;;50.40;21.37;;;-5.60;99.90;;;;;;5037724;28;20149;-77
2022/12/18 05:35:55;;;;;;;42.37;19.27;;;-5.60;99.90;;;;;;5025690;28;20395;-77
2022/12/18 05:38:22;;;;;;;42.73;18.40;;;-5.60;99.90;;;;;;5020518;28;20021;-77
2022/12/18 05:40:49;;;;;;;46.63;20.40;;;-5.50;99.90;;;;;;5049678;28;20404;-77
2022/12/18 05:43:15;;;;;;;41.33;19.43;;;-5.60;99.90;;;;;;5028476;28;20034;-77
2022/12/18 05:45:41;;;;;;;46.43;20.90;;;-5.50;99.90;;;;;;5031705;28;20056;-77
2022/12/18 05:48:08;;;;;;;47.50;19.50;;;-5.60;99.90;;;;;;5028865;28;20140;-77
2022/12/18 05:50:39;;;;;;;42.17;18.13;;;-5.60;99.90;;;;;;5027863;28;20041;-77
2022/12/18 05:53:06;;;;;;;42.85;19.27;;;-5.70;99.90;;;;;;5012242;28;20029;-75
2022/12/18 05:55:36;;;;;;;45.33;20.20;;;-5.70;99.90;;;;;;5026910;28;20121;-76
2022/12/18 05:58:02;;;;;;;44.57;19.80;;;-5.70;99.90;;;;;;5026340;28;20065;-76
2022/12/18 06:00:28;;;;;;;44.30;19.47;;;-5.70;99.90;;;;;;5033398;28;20036;-76
2022/12/18 06:02:54;;;;;;;43.67;18.63;;;-5.70;99.90;;;;;;5027853;28;20033;-76
2022/12/18 06:05:19;;;;;;;41.60;17.33;;;-5.70;99.90;;;;;;5026931;28;20092;-76
2022/12/18 06:07:45;;;;;;;41.03;18.53;;;-5.70;99.90;;;;;;5048585;28;20045;-76
2022/12/18 06:10:11;;;;;;;44.47;19.50;;;-5.80;99.90;;;;;;5038892;28;20034;-76
2022/12/18 06:12:37;;;;;;;42.03;18.80;;;-5.80;99.90;;;;;;5024935;28;20072;-76
2022/12/18 06:15:03;;;;;;;43.20;19.03;;;-5.80;99.90;;;;;;5029747;28;20084;-76
2022/12/18 06:17:33;;;;;;;41.07;19.67;;;-5.80;99.90;;;;;;5033697;28;20513;-76
2022/12/18 06:19:58;;;;;;;40.20;17.57;;;-5.90;99.90;;;;;;5043730;28;20045;-76
2022/12/18 06:22:24;;;;;;;40.97;18.80;;;-5.90;99.90;;;;;;5032193;28;20380;-75
2022/12/18 06:24:50;;;;;;;39.70;18.33;;;-5.90;99.90;;;;;;5048865;28;20033;-76
2022/12/18 06:27:16;;;;;;;38.33;18.63;;;-5.90;99.90;;;;;;5034061;28;20088;-76
2022/12/18 06:29:41;;;;;;;42.97;18.37;;;-5.90;99.90;;;;;;5025156;28;20048;-76
2022/12/18 06:32:07;;;;;;;40.53;18.20;;;-5.90;99.90;;;;;;5029778;28;20479;-76
2022/12/18 06:34:33;;;;;;;43.90;19.30;;;-5.90;99.90;;;;;;5036962;28;20037;-76
2022/12/18 06:36:59;;;;;;;40.10;20.07;;;-5.90;99.90;;;;;;5023174;28;20518;-76
2022/12/18 06:39:27;;;;;;;46.63;19.93;;;-5.90;99.90;;;;;;5022247;28;20484;-76
2022/12/18 06:41:53;;;;;;;40.40;19.80;;;-5.90;99.90;;;;;;5021845;28;20072;-76
2022/12/18 06:44:19;;;;;;;45.57;20.90;;;-5.90;99.90;;;;;;5041327;28;20452;-76
2022/12/18 06:46:45;;;;;;;43.37;19.67;;;-5.80;99.90;;;;;;5031850;28;20112;-76
2022/12/18 06:49:10;;;;;;;44.03;21.50;;;-5.80;99.90;;;;;;5025774;28;20128;-76
2022/12/18 06:51:36;;;;;;;43.20;21.07;;;-5.80;99.90;;;;;;5025374;28;20115;-76
2022/12/18 06:54:02;;;;;;;37.10;18.57;;;-5.80;99.90;;;;;;5023430;28;20116;-76
2022/12/18 06:56:27;;;;;;;42.47;18.93;;;-5.80;99.90;;;;;;5031625;28;20046;-76
2022/12/18 06:58:53;;;;;;;37.47;19.03;;;-5.80;99.90;;;;;;5023519;28;20450;-76
2022/12/18 07:01:19;;;;;;;41.97;20.33;;;-5.80;99.90;;;;;;5032313;28;20043;-76
2022/12/18 07:03:45;;;;;;;37.67;19.23;;;-5.80;99.90;;;;;;5023736;28;20284;-76
2022/12/18 07:06:16;;;;;;;40.97;19.07;;;-5.90;99.90;;;;;;5024473;28;20034;-76
2022/12/18 07:08:42;;;;;;;37.22;18.48;;;-5.90;99.90;;;;;;5020079;28;20046;-77
2022/12/18 07:11:07;;;;;;;41.40;19.50;;;-5.90;99.90;;;;;;5023393;28;20045;-76
2022/12/18 07:13:33;;;;;;;36.47;19.80;;;-5.90;99.90;;;;;;5051964;22;20117;-65
2022/12/18 07:16:16;;;;;;;81.50;26.27;;;-5.90;99.90;;;;;;5030537;28;20442;-65
2022/12/18 07:18:42;;;;;;;40.83;18.90;;;-5.90;99.90;;;;;;5049503;28;20048;-65
2022/12/18 07:21:10;;;;;;;34.37;17.00;;;-5.90;99.90;;;;;;5051273;28;20086;-64
2022/12/18 07:23:36;;;;;;;51.07;26.47;;;-5.80;99.90;;;;;;5034101;28;20046;-66
2022/12/18 07:26:04;;;;;;;33.53;17.57;;;-5.80;99.90;;;;;;5027653;28;20689;-65
2022/12/18 07:28:30;;;;;;;42.13;19.90;;;-5.80;99.90;;;;;;5032551;28;20095;-65
2022/12/18 07:30:56;;;;;;;43.67;20.07;;;-5.80;99.90;;;;;;5030436;28;20037;-65
2022/12/18 07:33:21;;;;;;;38.03;19.20;;;-5.80;99.90;;;;;;5031196;28;20041;-65
2022/12/18 07:35:47;;;;;;;38.00;17.63;;;-5.70;99.90;;;;;;5030669;28;20045;-65
2022/12/18 07:38:12;;;;;;;37.87;19.60;;;-5.70;99.90;;;;;;5030732;28;20099;-65
2022/12/18 07:40:38;;;;;;;40.60;18.47;;;-5.70;99.90;;;;;;5031277;28;20402;-65
2022/12/18 07:43:04;;;;;;;33.33;18.30;;;-5.70;99.90;;;;;;5026723;28;20030;-65
2022/12/18 07:45:29;;;;;;;36.00;18.93;;;-5.70;99.90;;;;;;5032767;28;20076;-65
2022/12/18 07:47:55;;;;;;;33.97;18.17;;;-5.70;99.90;;;;;;5033055;28;20116;-66
2022/12/18 07:50:20;;;;;;;36.17;18.33;;;-5.70;99.90;;;;;;5026325;28;20056;-65
2022/12/18 07:52:46;;;;;;;35.03;18.07;;;-5.70;99.90;;;;;;5026666;28;20049;-65
2022/12/18 07:55:12;;;;;;;35.53;17.60;;;-5.60;99.90;;;;;;5026644;28;20044;-65
2022/12/18 07:57:37;;;;;;;33.67;18.77;;;-5.60;99.90;;;;;;5030362;28;20115;-65
2022/12/18 08:00:04;;;;;;;36.77;17.70;;;-5.60;99.90;;;;;;5030173;28;20125;-65
2022/12/18 08:02:33;;;;;;;34.40;17.10;;;-5.50;99.90;;;;;;5031517;28;20041;-65
2022/12/18 08:04:58;;;;;;;34.50;18.57;;;-5.50;99.90;;;;;;5030006;28;20182;-66
2022/12/18 08:07:24;;;;;;;36.60;16.37;;;-5.50;99.90;;;;;;5025146;28;20033;-65
2022/12/18 08:09:49;;;;;;;39.80;17.33;;;-5.50;99.90;;;;;;5027698;28;20502;-65
2022/12/18 08:12:15;;;;;;;29.60;15.40;;;-5.40;99.90;;;;;;5029520;28;20041;-65
2022/12/18 08:14:40;;;;;;;32.23;16.37;;;-5.40;99.90;;;;;;5054728;28;20124;-65
2022/12/18 08:17:06;;;;;;;34.43;18.03;;;-5.40;99.90;;;;;;5073225;28;20032;-65
2022/12/18 08:19:32;;;;;;;36.70;18.40;;;-5.40;99.90;;;;;;5088452;28;20047;-65
2022/12/18 08:21:57;;;;;;;31.43;17.40;;;-5.40;99.90;;;;;;5100128;28;20039;-65
2022/12/18 08:24:23;;;;;;;33.87;17.73;;;-5.30;99.90;;;;;;5089747;28;20048;-66
2022/12/18 08:26:48;;;;;;;37.60;18.57;;;-5.30;99.90;;;;;;5015717;28;20052;-65
2022/12/18 08:29:14;;;;;;;32.40;16.83;;;-5.30;99.90;;;;;;4955524;28;20049;-65
2022/12/18 08:31:39;;;;;;;34.13;16.67;;;-5.30;99.90;;;;;;4876951;29;20125;-65
2022/12/18 08:34:05;;;;;;;40.97;16.33;;;-5.20;99.90;;;;;;4803868;29;20128;-65
2022/12/18 08:36:31;;;;;;;35.50;17.80;;;-5.20;99.90;;;;;;4690181;30;20049;-66
2022/12/18 08:39:08;;;;;;;29.60;15.67;;;-5.20;99.90;;;;;;5197704;27;20120;-66
2022/12/18 08:41:34;;;;;;;31.53;15.77;;;-5.10;99.90;;;;;;5148891;27;20044;-66
2022/12/18 08:46:44;;;;;;;26.57;15.67;;;-5.00;99.90;;;;;;5106408;27;20049;-66
2022/12/18 08:49:11;;;;;;;30.60;15.27;;;-5.00;99.90;;;;;;5016218;28;20042;-65
2022/12/18 08:51:37;;;;;;;28.90;14.47;;;-5.00;99.90;;;;;;4954467;28;20174;-66
2022/12/18 08:54:04;;;;;;;30.20;15.43;;;-4.90;99.90;;;;;;4965505;28;20485;-66
2022/12/18 08:56:30;;;;;;;25.90;15.33;;;-4.80;99.90;;;;;;4927261;28;20053;-67
2022/12/18 08:58:56;;;;;;;29.80;14.60;;;-4.80;99.90;;;;;;4852445;29;20074;-66
2022/12/18 09:01:23;;;;;;;27.67;13.73;;;-4.80;99.90;;;;;;4780205;29;20048;-66
2022/12/18 09:04:00;;;;;;;29.53;13.80;;;-4.70;99.90;;;;;;5161726;27;20131;-66
2022/12/18 09:06:26;;;;;;;23.07;13.47;;;-4.70;99.90;;;;;;5111440;27;20049;-66
2022/12/18 09:08:51;;;;;;;29.60;15.07;;;-4.60;99.90;;;;;;5063441;28;20052;-67
2022/12/18 09:11:23;;;;;;;27.67;15.27;;;-4.50;99.90;;;;;;5042533;28;20068;-66
2022/12/18 09:13:49;;;;;;;25.97;12.97;;;-4.50;99.90;;;;;;5061915;28;20030;-66
2022/12/18 09:16:15;;;;;;;25.93;12.70;;;-4.40;99.90;;;;;;5050921;28;20433;-66
2022/12/18 09:18:41;;;;;;;22.37;12.97;;;-4.30;99.90;;;;;;5030385;28;20369;-66
2022/12/18 09:21:11;;;;;;;21.80;13.17;;;-4.20;99.90;;;;;;4966527;28;20043;-66
2022/12/18 09:23:37;;;;;;;26.30;13.90;;;-4.20;99.90;;;;;;4929602;28;20071;-66
2022/12/18 09:26:03;;;;;;;24.13;13.27;;;-4.10;99.90;;;;;;4811864;29;20781;-66
2022/12/18 09:28:40;;;;;;;20.37;13.03;;;-4.10;99.90;;;;;;5175722;27;20141;-66
2022/12/18 09:31:07;;;;;;;22.67;12.47;;;-4.00;99.90;;;;;;5134537;27;20477;-66
2022/12/18 09:33:35;;;;;;;25.10;11.53;;;-4.00;99.90;;;;;;5127976;27;20545;-66
2022/12/18 09:36:03;;;;;;;19.03;11.03;;;-3.90;99.90;;;;;;5089136;27;20119;-67
2022/12/18 09:38:29;;;;;;;20.40;11.27;;;-3.70;99.90;;;;;;5118281;27;20031;-66
2022/12/18 09:41:00;;;;;;;17.00;9.67;;;-3.70;99.90;;;;;;4989234;28;20071;-66
2022/12/18 09:44:00;;;;;;;19.63;10.73;;;-3.60;99.90;;;;;;4881089;29;20056;-66
2022/12/18 09:46:36;;;;;;;19.03;10.37;;;-3.50;99.90;;;;;;4770109;29;20069;-66
2022/12/18 09:49:18;;;;;;;21.97;11.47;;;-3.50;99.90;;;;;;5197380;27;20128;-66
2022/12/18 09:51:50;;;;;;;20.98;10.23;;;-3.40;99.90;;;;;;5142865;27;20156;-66
2022/12/18 09:54:48;;;;;;;19.50;10.77;;;-3.30;99.90;;;;;;5125158;27;20040;-66
2022/12/18 09:57:18;;;;;;;18.40;9.73;;;-3.20;99.90;;;;;;5096366;28;20052;-66
2022/12/18 09:59:49;;;;;;;17.93;10.27;;;-3.20;99.90;;;;;;5029222;28;20830;-66
2022/12/18 10:02:18;;;;;;;16.90;10.23;;;-3.10;99.90;;;;;;4878493;29;20404;-66
2022/12/18 10:04:48;;;;;;;15.73;9.10;;;-3.10;99.90;;;;;;4775896;29;20102;-66
2022/12/18 10:07:26;;;;;;;17.07;10.17;;;-3.00;99.90;;;;;;4636944;30;20060;-67
2022/12/18 10:10:49;;;;;;;17.20;9.67;;;-2.90;99.90;;;;;;5173409;27;19919;-66
2022/12/18 10:13:30;;;;;;;15.20;9.27;;;-2.90;99.90;;;;;;5121403;27;20499;-68
2022/12/18 10:16:44;;;;;;;15.73;9.33;;;-2.80;99.90;;;;;;5067117;28;20040;-67
2022/12/18 10:19:49;;;;;;;14.40;8.67;;;-2.70;99.90;;;;;;5051853;28;20060;-67
2022/12/18 10:22:57;;;;;;;12.83;8.43;;;-2.60;99.90;;;;;;4978992;28;20058;-67
2022/12/18 10:25:29;;;;;;;13.63;8.07;;;-2.60;99.90;;;;;;4886154;29;20053;-67
2022/12/18 10:28:10;;;;;;;14.53;8.30;;;-2.60;99.90;;;;;;4837029;29;20486;-67
2022/12/18 10:30:37;;;;;;;;;;;-2.60;99.90;;;;;;4642594;30;20051;-67
2022/12/18 10:35:42;;;;;;;18.13;8.00;;;-2.60;99.90;;;;;;5184629;27;20478;-67
2022/12/18 10:38:14;;;;;;;13.50;8.63;;;-2.60;99.90;;;;;;5161427;27;20046;-67
2022/12/18 10:40:56;;;;;;;14.07;8.27;;;-2.60;99.90;;;;;;5164314;27;20047;-67
2022/12/18 10:43:35;;;;;;;13.53;7.63;;;-2.60;99.90;;;;;;5126430;27;20516;-67
2022/12/18 10:46:07;;;;;;;15.80;7.97;;;-2.60;99.90;;;;;;5031188;28;20035;-67
2022/12/18 10:48:54;;;;;;;13.17;6.60;;;-2.50;99.90;;;;;;4930212;28;20048;-66
2022/12/18 10:51:23;;;;;;;11.63;7.23;;;-2.50;99.90;;;;;;4772466;29;20056;-66
2022/12/18 10:54:20;;;;;;;10.63;6.63;;;-2.40;99.90;;;;;;4875305;29;20056;-67
2022/12/18 10:56:47;;;;;;;14.30;6.83;;;-2.40;99.90;;;;;;4678503;29;20577;-66
2022/12/18 11:02:37;;;;;;;11.17;7.00;;;-2.30;99.90;;;;;;5172369;27;20133;-66
2022/12/18 11:05:22;;;;;;;11.50;6.43;;;-2.20;99.90;;;;;;5098955;28;20170;-66
2022/12/18 11:07:51;;;;;;;11.20;7.13;;;-2.10;99.90;;;;;;5085694;28;20436;-66
2022/12/18 11:10:19;;;;;;;12.83;6.80;;;-2.10;99.90;;;;;;5108207;28;20059;-66
2022/12/18 11:12:45;;;;;;;9.37;5.97;;;-2.10;99.90;;;;;;5048402;28;20048;-66
2022/12/18 11:15:29;;;;;;;12.53;7.13;;;-2.00;99.90;;;;;;5002966;28;20062;-66
2022/12/18 11:17:55;;;;;;;9.37;6.07;;;-2.00;99.90;;;;;;4898810;28;20041;-66
2022/12/18 11:20:35;;;;;;;12.13;6.53;;;-1.90;99.90;;;;;;4872753;29;20579;-66
2022/12/18 11:23:13;;;;;;;12.47;7.63;;;-1.90;99.90;;;;;;4750301;29;20052;-64
2022/12/18 11:28:41;;;;;;;13.37;7.43;;;-1.90;99.90;;;;;;5192276;27;20132;-71
2022/12/18 11:31:23;;;;;;;13.53;7.73;;;-1.80;99.90;;;;;;5148575;27;20043;-69
2022/12/18 11:34:01;;;;;;;12.13;7.70;;;-1.80;99.90;;;;;;5102819;28;20032;-70
2022/12/18 11:36:33;;;;;;;14.47;7.70;;;-1.80;99.90;;;;;;5094952;28;20044;-68
2022/12/18 11:39:05;;;;;;;11.80;6.73;;;-1.70;99.90;;;;;;5061790;28;20065;-69
2022/12/18 11:44:27;;;;;;;12.27;7.37;;;-1.70;99.90;;;;;;4962142;28;20051;-68
2022/12/18 11:47:02;;;;;;;12.07;7.40;;;-1.70;99.90;;;;;;4842527;29;20048;-67
2022/12/18 11:49:40;;;;;;;13.60;7.90;;;-1.60;99.90;;;;;;4776841;29;20048;-68
2022/12/18 11:55:25;;;;;;;11.67;7.30;;;-1.60;99.90;;;;;;5175660;27;20335;-64
2022/12/18 11:58:04;;;;;;;9.97;6.60;;;-1.60;99.90;;;;;;5153023;27;20064;-64
2022/12/18 12:00:30;;;;;;;14.37;8.00;;;-1.50;99.90;;;;;;5093474;27;20044;-64
2022/12/18 12:03:10;;;;;;;11.77;7.23;;;-1.50;99.90;;;;;;5097922;27;20508;-66
2022/12/18 12:06:01;;;;;;;12.17;7.13;;;-1.50;99.90;;;;;;4988832;28;20482;-67
2022/12/18 12:09:05;;;;;;;15.30;8.50;;;-1.50;99.90;;;;;;4996697;28;20043;-66
2022/12/18 12:12:10;;;;;;;11.53;7.57;;;-1.50;99.90;;;;;;4817859;29;20053;-66
2022/12/18 12:14:48;;;;;;;13.13;7.70;;;-1.40;99.90;;;;;;4643444;30;20503;-66
2022/12/18 12:17:37;;;;;;;13.67;8.23;;;-1.40;99.90;;;;;;4591939;30;20047;-65
2022/12/18 12:20:20;;;;;;;15.15;9.02;;;-1.40;99.90;;;;;;5197284;27;20140;-64
2022/12/18 12:23:05;;;;;;;12.40;7.20;;;-1.30;99.90;;;;;;5156249;27;20517;-64
2022/12/18 12:25:48;;;;;;;14.10;7.83;;;-1.30;99.90;;;;;;5136180;27;20181;-64
2022/12/18 12:28:40;;;;;;;14.55;7.53;;;-1.30;99.90;;;;;;5118198;27;20039;-64
2022/12/18 12:31:05;;;;;;;12.50;7.40;;;-1.30;99.90;;;;;;5048742;28;20530;-64
2022/12/18 12:33:50;;;;;;;14.33;8.13;;;-1.30;99.90;;;;;;5040411;28;20042;-65
2022/12/18 12:36:40;;;;;;;13.20;7.80;;;-1.30;99.90;;;;;;4912160;28;20391;-65
2022/12/18 12:39:12;;;;;;;11.80;7.03;;;-1.20;99.90;;;;;;4792827;29;20063;-65
2022/12/18 12:47:13;;;;;;;12.43;7.43;;;-1.20;99.90;;;;;;5211336;27;20119;-66
2022/12/18 12:49:39;;;;;;;15.05;7.75;;;-1.20;99.90;;;;;;5165544;27;20484;-66
2022/12/18 12:52:21;;;;;;;13.03;7.27;;;-1.20;99.90;;;;;;5154401;27;20053;-66
2022/12/18 12:54:48;;;;;;;12.37;7.17;;;-1.10;99.90;;;;;;5089862;28;20132;-66
2022/12/18 12:57:23;;;;;;;12.32;7.10;;;-1.10;99.90;;;;;;5049280;28;20046;-66
2022/12/18 13:00:10;;;;;;;14.30;7.80;;;-1.10;99.90;;;;;;4930658;28;20040;-66
2022/12/18 13:02:50;;;;;;;13.40;7.43;;;-1.10;99.90;;;;;;4906687;28;20056;-66
2022/12/18 13:05:40;;;;;;;12.45;6.72;;;-1.00;99.90;;;;;;4796586;29;20050;-66
2022/12/18 13:08:30;;;;;;;12.38;7.93;;;-1.00;99.90;;;;;;5210152;27;20599;-64
2022/12/18 13:13:50;;;;;;;13.43;7.95;;;-1.00;99.90;;;;;;5134495;22;20451;-76
2022/12/18 13:16:19;;;;;;;16.30;9.17;;;-1.00;99.90;;;;;;5076781;28;20088;-76
2022/12/18 13:18:53;;;;;;;12.90;7.63;;;-1.00;99.90;;;;;;5104829;28;20117;-76